createdAt,value
2017-10-06T00:02:11.109Z,10.30
2017-10-06T00:04:50.921Z,10.70
2017-10-06T00:07:30.632Z,10.70
2017-10-06T00:10:09.372Z,10.80
2017-10-06T00:12:58.581Z,10.90
2017-10-06T00:15:36.540Z,10.50
2017-10-06T00:18:12.253Z,10.40
2017-10-06T00:20:54.439Z,10.50
2017-10-06T00:23:36.578Z,10.40
2017-10-06T00:26:17.734Z,10.30
2017-10-06T00:28:57.333Z,10.50
2017-10-06T00:31:40.035Z,10.80
2017-10-06T00:34:21.103Z,10.60
2017-10-06T00:37:00.621Z,10.00
2017-10-06T00:39:37.229Z,9.90
2017-10-06T00:42:13.761Z,9.30
2017-10-06T00:44:54.809Z,9.30
2017-10-06T00:47:35.032Z,9.20
2017-10-06T00:50:15.721Z,9.30
2017-10-06T00:52:53.676Z,9.30
2017-10-06T00:55:34.046Z,9.40
2017-10-06T00:58:11.008Z,9.40
2017-10-06T01:00:51.695Z,9.50
2017-10-06T01:03:30.460Z,9.50
2017-10-06T01:06:05.552Z,9.60
2017-10-06T01:08:48.028Z,10.10
2017-10-06T01:15:13.501Z,10.50
2017-10-06T01:17:53.513Z,10.30
2017-10-06T01:20:30.938Z,10.10
2017-10-06T01:23:14.622Z,10.10
2017-10-06T01:26:00.584Z,10.20
2017-10-06T01:28:37.904Z,10.60
2017-10-06T01:31:13.830Z,10.80
2017-10-06T01:33:49.216Z,10.80
2017-10-06T01:36:33.697Z,10.40
2017-10-06T01:39:12.564Z,10.00
2017-10-06T01:41:53.443Z,9.30
2017-10-06T01:44:33.279Z,9.20
2017-10-06T01:47:14.239Z,9.40
2017-10-06T01:49:58.025Z,9.20
2017-10-06T01:58:11.445Z,9.30
2017-10-06T02:00:48.444Z,9.30
2017-10-06T02:03:30.805Z,9.30
2017-10-06T02:06:12.154Z,9.10
2017-10-06T02:08:52.972Z,9.00
2017-10-06T02:11:31.946Z,9.30
2017-10-06T02:14:08.467Z,9.60
2017-10-06T02:16:49.715Z,9.60
2017-10-06T02:19:30.775Z,10.00
2017-10-06T02:22:08.259Z,9.60
2017-10-06T02:29:03.566Z,9.40
2017-10-06T02:31:43.852Z,9.60
2017-10-06T02:34:29.983Z,9.80
2017-10-06T02:37:07.538Z,9.80
2017-10-06T02:39:47.026Z,9.90
2017-10-06T02:42:24.425Z,10.10
2017-10-06T02:45:02.579Z,10.10
2017-10-06T02:47:43.499Z,10.10
2017-10-06T02:50:17.164Z,10.20
2017-10-06T02:53:13.310Z,10.10
2017-10-06T02:55:50.104Z,10.00
2017-10-06T02:58:28.765Z,9.90
2017-10-06T03:01:05.674Z,10.00
2017-10-06T03:03:43.353Z,10.00
2017-10-06T03:06:20.036Z,9.80
2017-10-06T03:08:56.495Z,9.80
2017-10-06T03:11:30.129Z,9.60
2017-10-06T03:14:12.594Z,9.40
2017-10-06T03:17:08.829Z,9.70
2017-10-06T03:19:54.003Z,9.60
2017-10-06T03:22:34.778Z,9.90
2017-10-06T03:25:09.107Z,9.90
2017-10-06T03:27:45.065Z,9.80
2017-10-06T03:30:22.842Z,9.60
2017-10-06T03:32:59.174Z,9.60
2017-10-06T03:35:39.137Z,9.90
2017-10-06T03:38:17.856Z,10.00
2017-10-06T03:40:57.062Z,9.80
2017-10-06T03:43:37.872Z,10.00
2017-10-06T03:46:16.907Z,10.20
2017-10-06T03:49:06.461Z,10.20
2017-10-06T03:51:44.992Z,10.30
2017-10-06T03:54:23.877Z,10.20
2017-10-06T03:57:09.156Z,10.30
2017-10-06T03:59:46.424Z,10.30
2017-10-06T04:02:21.850Z,10.20
2017-10-06T04:05:03.330Z,9.50
2017-10-06T04:07:38.217Z,9.50
2017-10-06T04:10:18.833Z,9.70
2017-10-06T04:13:04.722Z,9.90
2017-10-06T04:15:43.519Z,10.10
2017-10-06T04:18:19.756Z,10.10
2017-10-06T04:20:57.761Z,10.10
2017-10-06T04:23:39.066Z,10.10
2017-10-06T04:26:14.999Z,10.00
2017-10-06T04:28:49.580Z,10.00
2017-10-06T04:31:32.106Z,9.80
2017-10-06T04:34:09.684Z,9.70
2017-10-06T04:36:46.482Z,9.60
2017-10-06T04:39:20.801Z,9.70
2017-10-06T04:42:01.789Z,9.40
2017-10-06T04:44:36.912Z,9.30
2017-10-06T04:47:11.853Z,9.10
2017-10-06T04:49:46.526Z,8.90
2017-10-06T04:52:22.907Z,9.20
2017-10-06T04:55:06.722Z,9.10
2017-10-06T04:57:56.064Z,9.00
2017-10-06T05:00:34.148Z,9.00
2017-10-06T05:03:12.326Z,9.00
2017-10-06T05:05:46.594Z,8.80
2017-10-06T05:08:22.600Z,8.90
2017-10-06T05:10:58.037Z,8.80
2017-10-06T05:13:32.945Z,8.80
2017-10-06T05:16:08.598Z,8.80
2017-10-06T05:18:50.426Z,8.90
2017-10-06T05:21:24.375Z,8.90
2017-10-06T05:24:01.164Z,8.80
2017-10-06T05:26:36.566Z,8.80
2017-10-06T05:29:19.100Z,8.50
2017-10-06T05:31:58.391Z,8.50
2017-10-06T05:34:39.581Z,8.40
2017-10-06T05:37:18.148Z,8.40
2017-10-06T05:39:55.831Z,8.20
2017-10-06T05:42:34.244Z,8.10
2017-10-06T05:45:11.748Z,7.90
2017-10-06T05:47:47.920Z,8.00
2017-10-06T05:50:23.930Z,7.80
2017-10-06T05:53:02.541Z,7.90
2017-10-06T05:55:40.152Z,8.00
2017-10-06T05:58:15.127Z,8.10
2017-10-06T06:00:51.277Z,8.30
2017-10-06T06:03:26.563Z,8.40
2017-10-06T06:06:05.624Z,8.50
2017-10-06T06:08:43.375Z,8.50
2017-10-06T06:11:18.924Z,8.60
2017-10-06T06:13:57.531Z,8.70
2017-10-06T06:16:33.325Z,8.70
2017-10-06T06:19:09.090Z,8.80
2017-10-06T06:21:43.924Z,8.70
2017-10-06T06:24:18.864Z,8.30
2017-10-06T06:27:00.080Z,8.20
2017-10-06T06:29:38.826Z,8.20
2017-10-06T06:32:14.058Z,8.10
2017-10-06T06:34:51.068Z,8.10
2017-10-06T06:37:28.197Z,8.00
2017-10-06T06:40:04.017Z,8.40
2017-10-06T06:42:42.322Z,8.40
2017-10-06T06:45:18.963Z,8.60
2017-10-06T06:47:58.094Z,8.40
2017-10-06T06:50:36.050Z,8.20
2017-10-06T06:53:13.094Z,8.30
2017-10-06T06:55:48.513Z,8.40
2017-10-06T06:58:26.304Z,8.30
2017-10-06T07:01:02.425Z,8.20
2017-10-06T07:03:39.323Z,8.10
2017-10-06T07:06:18.529Z,8.00
2017-10-06T07:08:55.065Z,8.00
2017-10-06T07:11:31.741Z,7.90
2017-10-06T07:14:09.562Z,8.00
2017-10-06T07:16:45.599Z,7.90
2017-10-06T07:19:20.268Z,7.90
2017-10-06T07:21:55.790Z,8.00
2017-10-06T07:24:32.870Z,8.00
2017-10-06T07:27:09.462Z,8.10
2017-10-06T07:29:46.087Z,8.20
2017-10-06T07:32:25.351Z,8.20
2017-10-06T07:35:04.468Z,8.00
2017-10-06T07:37:42.726Z,8.00
2017-10-06T07:40:23.395Z,8.00
2017-10-06T07:43:03.489Z,8.00
2017-10-06T07:45:38.813Z,7.90
2017-10-06T07:48:16.556Z,7.90
2017-10-06T07:50:55.654Z,8.00
2017-10-06T07:53:35.139Z,8.00
2017-10-06T07:56:09.814Z,8.00
2017-10-06T07:58:44.685Z,8.00
2017-10-06T08:01:20.308Z,8.10
2017-10-06T08:03:58.867Z,8.10
2017-10-06T08:06:34.110Z,8.10
2017-10-06T08:09:13.875Z,8.10
2017-10-06T08:11:52.884Z,8.20
2017-10-06T08:14:27.720Z,8.20
2017-10-06T08:17:03.267Z,8.30
2017-10-06T08:19:38.706Z,8.30
2017-10-06T08:22:16.459Z,8.50
2017-10-06T08:24:53.060Z,8.50
2017-10-06T08:27:30.488Z,8.60
2017-10-06T08:30:07.879Z,8.60
2017-10-06T08:32:45.281Z,8.80
2017-10-06T08:35:20.267Z,8.80
2017-10-06T08:37:57.821Z,9.00
2017-10-06T08:40:34.579Z,8.90
2017-10-06T08:43:12.394Z,8.80
2017-10-06T08:45:50.009Z,8.70
2017-10-06T08:48:26.656Z,8.60
2017-10-06T08:51:06.492Z,8.50
2017-10-06T08:53:46.398Z,8.70
2017-10-06T08:56:27.350Z,8.80
2017-10-06T08:59:05.162Z,9.10
2017-10-06T09:01:42.510Z,9.10
2017-10-06T09:04:18.677Z,9.40
2017-10-06T09:06:57.736Z,9.40
2017-10-06T09:09:33.905Z,9.50
2017-10-06T09:12:13.090Z,9.70
2017-10-06T09:14:51.136Z,9.70
2017-10-06T09:17:32.555Z,9.70
2017-10-06T09:20:11.077Z,9.80
2017-10-06T09:22:49.289Z,9.80
2017-10-06T09:25:25.637Z,10.00
2017-10-06T09:28:01.170Z,9.90
2017-10-06T09:30:38.139Z,10.00
2017-10-06T09:33:14.585Z,10.00
2017-10-06T09:35:51.895Z,10.00
2017-10-06T09:38:30.921Z,10.00
2017-10-06T09:41:07.892Z,10.00
2017-10-06T09:43:42.135Z,10.00
2017-10-06T09:46:21.848Z,10.10
2017-10-06T09:48:58.720Z,10.10
2017-10-06T09:51:36.992Z,10.10
2017-10-06T09:54:11.838Z,10.30
2017-10-06T09:56:49.527Z,10.60
2017-10-06T09:59:26.371Z,10.70
2017-10-06T10:02:07.123Z,10.60
2017-10-06T10:04:44.431Z,10.50
2017-10-06T10:07:23.743Z,10.20
2017-10-06T10:10:04.151Z,10.10
2017-10-06T10:12:39.879Z,10.10
2017-10-06T10:15:18.061Z,10.10
2017-10-06T10:17:55.169Z,10.20
2017-10-06T10:20:32.826Z,10.00
2017-10-06T10:23:07.468Z,10.00
2017-10-06T10:25:43.449Z,10.00
2017-10-06T10:28:22.235Z,9.80
2017-10-06T10:30:59.751Z,9.80
2017-10-06T10:33:34.827Z,10.00
2017-10-06T10:36:16.986Z,10.00
2017-10-06T10:38:53.497Z,10.00
2017-10-06T10:41:29.042Z,10.00
2017-10-06T10:44:09.750Z,9.90
2017-10-06T10:46:45.522Z,10.00
2017-10-06T10:49:21.872Z,10.00
2017-10-06T10:51:56.051Z,9.90
2017-10-06T10:54:31.171Z,9.90
2017-10-06T10:57:10.319Z,9.90
2017-10-06T10:59:44.422Z,10.00
2017-10-06T11:02:21.927Z,9.90
2017-10-06T11:04:58.651Z,9.90
2017-10-06T11:07:39.833Z,10.00
2017-10-06T11:10:18.729Z,10.10
2017-10-06T11:12:56.227Z,10.10
2017-10-06T11:15:33.183Z,10.10
2017-10-06T11:18:17.394Z,10.10
2017-10-06T11:20:53.939Z,9.90
2017-10-06T11:23:33.153Z,10.00
2017-10-06T11:26:08.753Z,10.00
2017-10-06T11:28:44.071Z,10.10
2017-10-06T11:31:22.662Z,10.20
2017-10-06T11:34:00.732Z,10.10
2017-10-06T11:36:45.995Z,10.10
2017-10-06T11:39:25.555Z,10.10
2017-10-06T11:42:08.334Z,10.10
2017-10-06T11:44:46.252Z,10.00
2017-10-06T11:47:22.551Z,10.10
2017-10-06T11:49:59.580Z,10.20
2017-10-06T11:52:47.415Z,10.20
2017-10-06T11:55:25.866Z,10.30
2017-10-06T11:58:06.039Z,10.20
2017-10-06T12:00:48.137Z,10.30
2017-10-06T12:03:25.577Z,10.20
2017-10-06T12:06:04.510Z,10.20
2017-10-06T12:08:42.152Z,10.30
2017-10-06T12:11:16.667Z,10.40
2017-10-06T12:13:55.242Z,10.40
2017-10-06T12:16:38.249Z,10.30
2017-10-06T12:19:16.075Z,10.10
2017-10-06T12:21:54.827Z,9.50
2017-10-06T12:24:31.255Z,9.50
2017-10-06T12:27:11.290Z,9.30
2017-10-06T12:29:47.867Z,9.50
2017-10-06T12:32:25.414Z,9.60
2017-10-06T12:35:05.506Z,10.30
2017-10-06T12:37:44.733Z,10.40
2017-10-06T12:40:26.319Z,10.40
2017-10-06T12:43:09.054Z,10.50
2017-10-06T12:45:46.470Z,10.70
2017-10-06T12:48:23.318Z,11.00
2017-10-06T12:51:00.247Z,10.70
2017-10-06T12:53:38.684Z,10.80
2017-10-06T12:56:14.835Z,10.70
2017-10-06T12:58:53.449Z,11.00
2017-10-06T13:01:29.709Z,10.90
2017-10-06T13:04:10.167Z,11.20
2017-10-06T13:06:51.684Z,11.00
2017-10-06T13:09:30.198Z,11.10
2017-10-06T13:12:07.087Z,10.80
2017-10-06T13:14:44.850Z,10.70
2017-10-06T13:17:26.130Z,10.40
2017-10-06T13:20:07.434Z,10.40
2017-10-06T13:22:44.970Z,10.30
2017-10-06T13:25:23.364Z,10.30
2017-10-06T13:27:58.635Z,10.60
2017-10-06T13:30:41.102Z,10.70
2017-10-06T13:33:18.045Z,10.70
2017-10-06T13:38:33.863Z,10.30
2017-10-06T13:41:11.269Z,10.00
2017-10-06T13:43:59.718Z,9.90
2017-10-06T13:46:40.255Z,10.30
2017-10-06T13:49:17.329Z,10.20
2017-10-06T13:51:53.166Z,10.40
2017-10-06T13:54:30.265Z,10.30
2017-10-06T13:57:08.383Z,10.00
2017-10-06T13:59:43.047Z,10.00
2017-10-06T14:02:19.333Z,9.90
2017-10-06T14:04:57.288Z,9.90
2017-10-06T14:07:36.179Z,9.90
2017-10-06T14:10:15.317Z,9.80
2017-10-06T14:12:55.810Z,9.90
2017-10-06T14:15:39.934Z,9.90
2017-10-06T14:18:16.527Z,9.90
2017-10-06T14:20:58.205Z,9.80
2017-10-06T14:23:37.337Z,9.90
2017-10-06T14:26:14.870Z,9.90
2017-10-06T14:28:49.305Z,10.00
2017-10-06T14:31:23.791Z,9.90
2017-10-06T14:33:57.387Z,9.90
2017-10-06T14:36:31.010Z,10.00
2017-10-06T14:39:04.579Z,9.90
2017-10-06T14:41:38.284Z,9.90
2017-10-06T14:44:11.915Z,9.80
2017-10-06T14:46:45.780Z,9.70
2017-10-06T14:49:19.680Z,9.70
2017-10-06T14:51:54.293Z,9.60
2017-10-06T14:54:27.938Z,9.60
2017-10-06T14:57:01.546Z,9.50
2017-10-06T14:59:35.473Z,9.40
2017-10-06T15:02:09.249Z,9.50
2017-10-06T15:04:43.029Z,9.00
2017-10-06T15:07:16.902Z,8.70
2017-10-06T15:09:50.666Z,8.40
2017-10-06T15:12:25.262Z,8.00
2017-10-06T15:14:59.148Z,8.00
2017-10-06T15:17:32.869Z,7.90
2017-10-06T15:20:06.689Z,7.80
2017-10-06T15:22:40.494Z,8.00
2017-10-06T15:25:14.380Z,8.10
2017-10-06T15:27:48.156Z,8.20
2017-10-06T15:30:21.966Z,8.40
2017-10-06T15:32:55.697Z,8.70
2017-10-06T15:35:29.315Z,9.00
2017-10-06T15:38:03.787Z,9.10
2017-10-06T15:40:37.592Z,9.10
2017-10-06T15:43:11.325Z,9.20
2017-10-06T15:45:45.165Z,9.30
2017-10-06T15:48:19.737Z,9.40
2017-10-06T15:50:53.520Z,9.40
2017-10-06T15:53:27.220Z,9.40
2017-10-06T15:56:00.998Z,8.90
2017-10-06T15:58:34.707Z,8.80
2017-10-06T16:01:08.456Z,8.90
2017-10-06T16:03:42.299Z,8.90
2017-10-06T16:06:16.009Z,8.30
2017-10-06T16:08:49.847Z,8.00
2017-10-06T16:11:23.679Z,8.20
2017-10-06T16:13:57.285Z,8.10
2017-10-06T16:16:31.792Z,7.80
2017-10-06T16:19:05.453Z,7.80
2017-10-06T16:21:39.331Z,8.00
2017-10-06T16:24:13.107Z,7.80
2017-10-06T16:26:46.856Z,7.80
2017-10-06T16:29:20.799Z,7.80
2017-10-06T16:31:54.546Z,7.70
2017-10-06T16:34:28.327Z,7.70
2017-10-06T16:37:02.218Z,7.70
2017-10-06T16:39:35.908Z,7.70
2017-10-06T16:42:09.714Z,7.80
2017-10-06T16:44:43.454Z,8.00
2017-10-06T16:47:17.365Z,7.80
2017-10-06T16:49:51.867Z,7.10
2017-10-06T16:52:26.412Z,7.00
2017-10-06T16:55:00.130Z,6.90
2017-10-06T16:57:33.911Z,7.00
2017-10-06T17:00:08.524Z,7.10
2017-10-06T17:02:42.321Z,7.10
2017-10-06T17:05:16.866Z,7.30
2017-10-06T17:07:50.687Z,7.30
2017-10-06T17:10:24.582Z,7.30
2017-10-06T17:12:58.473Z,7.20
2017-10-06T17:15:32.288Z,7.50
2017-10-06T17:18:06.167Z,7.70
2017-10-06T17:20:40.852Z,8.10
2017-10-06T17:23:14.706Z,8.10
2017-10-06T17:25:48.342Z,8.40
2017-10-06T17:28:22.130Z,8.70
2017-10-06T17:30:57.180Z,8.30
2017-10-06T17:33:30.943Z,8.30
2017-10-06T17:36:05.475Z,8.30
2017-10-06T17:38:40.129Z,8.20
2017-10-06T17:41:13.962Z,8.20
2017-10-06T17:43:47.785Z,8.10
2017-10-06T17:46:21.545Z,8.30
2017-10-06T17:48:55.501Z,8.40
2017-10-06T17:51:29.440Z,8.60
2017-10-06T17:54:04.050Z,8.30
2017-10-06T17:56:37.853Z,8.30
2017-10-06T17:59:12.474Z,8.60
2017-10-06T18:01:46.364Z,8.60
2017-10-06T18:04:20.105Z,8.80
2017-10-06T18:06:53.920Z,8.80
2017-10-06T18:09:27.541Z,8.80
2017-10-06T18:12:01.258Z,8.70
2017-10-06T18:14:34.882Z,8.60
2017-10-06T18:17:09.421Z,8.80
2017-10-06T18:19:43.138Z,8.80
2017-10-06T18:22:16.880Z,9.00
2017-10-06T18:24:50.512Z,9.10
2017-10-06T18:27:24.378Z,8.80
2017-10-06T18:29:58.169Z,8.60
2017-10-06T18:32:32.018Z,8.40
2017-10-06T18:35:06.501Z,8.00
2017-10-06T18:37:41.066Z,8.00
2017-10-06T18:40:15.065Z,8.00
2017-10-06T18:42:49.680Z,8.50
2017-10-06T18:45:23.437Z,8.50
2017-10-06T18:47:57.925Z,8.40
2017-10-06T18:50:31.772Z,8.40
2017-10-06T18:53:06.213Z,8.80
2017-10-06T18:55:39.899Z,8.80
2017-10-06T18:58:13.672Z,8.90
2017-10-06T19:00:47.505Z,8.80
2017-10-06T19:03:21.313Z,8.80
2017-10-06T19:05:55.130Z,8.70
2017-10-06T19:08:28.887Z,8.70
2017-10-06T19:11:03.401Z,8.80
2017-10-06T19:13:36.994Z,8.80
2017-10-06T19:16:10.891Z,8.80
2017-10-06T19:18:44.721Z,8.20
2017-10-06T19:21:18.537Z,7.90
2017-10-06T19:23:52.310Z,7.70
2017-10-06T19:26:26.074Z,7.70
2017-10-06T19:28:59.855Z,7.60
2017-10-06T19:31:33.647Z,7.70
2017-10-06T19:34:07.419Z,7.60
2017-10-06T19:36:41.331Z,7.50
2017-10-06T19:39:15.143Z,7.40
2017-10-06T19:41:49.694Z,7.30
2017-10-06T19:44:24.165Z,7.20
2017-10-06T19:46:57.790Z,7.20
2017-10-06T19:49:32.310Z,7.30
2017-10-06T19:52:05.933Z,7.20
2017-10-06T19:54:39.655Z,7.20
2017-10-06T19:57:13.362Z,7.20
2017-10-06T19:59:47.218Z,7.10
2017-10-06T20:02:20.973Z,7.10
2017-10-06T20:04:54.635Z,7.20
2017-10-06T20:07:28.336Z,7.10
2017-10-06T20:10:02.946Z,7.10
2017-10-06T20:12:36.785Z,7.10
2017-10-06T20:15:10.593Z,7.20
2017-10-06T20:17:44.455Z,7.20
2017-10-06T20:20:18.040Z,7.20
2017-10-06T20:22:52.629Z,7.40
2017-10-06T20:25:26.433Z,7.30
2017-10-06T20:28:00.285Z,7.40
2017-10-06T20:30:34.393Z,7.50
2017-10-06T20:33:08.728Z,7.30
2017-10-06T20:35:43.158Z,7.30
2017-10-06T20:38:17.157Z,7.40
2017-10-06T20:40:50.875Z,7.40
2017-10-06T20:43:25.524Z,7.40
2017-10-06T20:45:59.409Z,7.40
2017-10-06T20:48:33.138Z,7.30
2017-10-06T20:51:06.910Z,7.40
2017-10-06T20:53:40.637Z,7.30
2017-10-06T20:56:14.357Z,7.30
2017-10-06T20:58:48.778Z,7.30
2017-10-06T21:01:22.410Z,7.30
2017-10-06T21:03:57.081Z,7.50
2017-10-06T21:06:31.581Z,7.60
2017-10-06T21:09:05.486Z,7.60
2017-10-06T21:11:39.305Z,7.60
2017-10-06T21:14:13.124Z,7.60
2017-10-06T21:16:46.945Z,7.50
2017-10-06T21:19:20.785Z,7.50
2017-10-06T21:21:54.551Z,7.50
2017-10-06T21:24:28.380Z,7.50
2017-10-06T21:27:02.969Z,7.40
2017-10-06T21:29:37.373Z,7.50
2017-10-06T21:32:11.342Z,7.50
2017-10-06T21:34:45.724Z,7.80
2017-10-06T21:37:19.416Z,7.80
2017-10-06T21:39:53.136Z,7.90
2017-10-06T21:42:26.875Z,8.00
2017-10-06T21:45:00.528Z,8.30
2017-10-06T21:47:34.254Z,8.40
2017-10-06T21:50:08.828Z,8.50
2017-10-06T21:52:42.607Z,8.60
2017-10-06T21:55:17.139Z,8.10
2017-10-06T21:57:50.852Z,8.10
2017-10-06T22:00:24.698Z,8.20
2017-10-06T22:02:58.401Z,8.00
2017-10-06T22:05:32.213Z,8.00
2017-10-06T22:08:05.972Z,8.00
2017-10-06T22:10:39.611Z,7.90
2017-10-06T22:13:13.243Z,7.80
2017-10-06T22:15:46.991Z,7.80
2017-10-06T22:18:20.897Z,7.70
2017-10-06T22:20:54.855Z,7.70
2017-10-06T22:23:28.591Z,7.80
2017-10-06T22:26:02.226Z,7.70
2017-10-06T22:28:36.726Z,8.00
2017-10-06T22:31:10.408Z,8.00
2017-10-06T22:33:44.266Z,7.80
2017-10-06T22:36:18.072Z,7.90
2017-10-06T22:38:51.900Z,7.80
2017-10-06T22:41:26.428Z,7.50
2017-10-06T22:44:00.074Z,7.50
2017-10-06T22:46:33.925Z,7.40
2017-10-06T22:49:07.707Z,7.50
2017-10-06T22:51:41.524Z,7.50
2017-10-06T22:54:16.053Z,7.60
2017-10-06T22:56:49.680Z,7.50
2017-10-06T22:59:23.510Z,7.50
2017-10-06T23:01:57.405Z,7.40
2017-10-06T23:04:31.074Z,7.40
2017-10-06T23:07:05.626Z,7.40
2017-10-06T23:09:39.569Z,7.40
2017-10-06T23:12:13.383Z,7.30
2017-10-06T23:14:47.148Z,7.30
2017-10-06T23:17:21.666Z,7.30
2017-10-06T23:19:55.344Z,7.30
2017-10-06T23:22:29.373Z,7.30
2017-10-06T23:25:03.027Z,7.30
2017-10-06T23:27:36.650Z,7.30
2017-10-06T23:30:10.317Z,7.40
2017-10-06T23:32:43.948Z,7.40
2017-10-06T23:35:17.539Z,7.40
2017-10-06T23:37:51.234Z,7.30
2017-10-06T23:40:24.885Z,7.30
2017-10-06T23:42:58.672Z,7.30
2017-10-06T23:45:32.589Z,7.30
2017-10-06T23:48:06.353Z,7.30
2017-10-06T23:50:40.937Z,7.30
2017-10-06T23:53:14.774Z,7.30
2017-10-06T23:55:49.299Z,7.30
2017-10-06T23:58:23.089Z,7.30
